EHWO/WOE METAR and TAF weather

Enter ICAO airport designator
Station Type Date Time Source
EHWO METAR 2018/10/16 20:55 UTC NOAA

EHWO 162055Z AUTO 12003KT 9999 FEW340 11/10 Q1017 BLU


Station Type Date Time Source
EHWO Decoded METAR 2018/10/16 20:55 UTC NOAA

Woensdrecht, Netherlands (EHWO) 51-27N 004-20E 17M
Oct 16, 2018 - 04:55 PM EDT / 2018.10.16 2055 UTC
Wind: from the ESE (120 degrees) at 3 MPH (3 KT):0
Visibility: greater than 7 mile(s):0
Sky conditions: mostly clear
Temperature: 51 F (11 C)
Dew Point: 50 F (10 C)
Relative Humidity: 93%
Pressure (altimeter): 30.03 in. Hg (1017 hPa)
ob: EHWO 162055Z AUTO 12003KT 9999 FEW340 11/10 Q1017 BLU
cycle: 21

Station Type Date Time Source
EHWO TAF 2018/10/16 09:06 UTC NOAA

TAF EHWO 160836Z 1609/1621 VRB03KT CAVOK
BECMG 1609/1611 20005KT


Example: see airport list